createdAt,value
2015-10-17T08:15:27.021Z,98677
2015-10-17T08:15:40.677Z,98670
2015-10-17T08:15:54.413Z,98670
2015-10-17T08:16:07.679Z,98664
2015-10-17T08:16:21.648Z,98672
2015-10-17T08:16:36.023Z,98662
2015-10-17T08:16:50.885Z,98666
2015-10-17T08:17:07.010Z,98668
2015-10-17T08:17:21.666Z,98656
2015-10-17T08:17:35.901Z,98654
2015-10-17T08:17:49.887Z,98659
2015-10-17T08:18:03.950Z,98657
2015-10-17T08:18:17.747Z,98660
2015-10-17T08:18:30.934Z,98661
2015-10-17T08:18:44.203Z,98661
2015-10-17T09:36:00.457Z,98659
2015-10-17T09:36:12.957Z,98667
2015-10-17T09:36:25.317Z,98659
2015-10-17T09:36:41.414Z,98662
2015-10-17T09:36:54.570Z,98664
2015-10-17T09:37:07.617Z,98664
2015-10-17T09:37:20.632Z,98664
2015-10-17T09:37:33.679Z,98651
2015-10-17T09:37:46.120Z,98656
2015-10-17T09:37:59.073Z,98664
2015-10-17T09:38:12.026Z,98654
2015-10-17T09:38:24.245Z,98662
2015-10-17T09:38:36.713Z,98662
2015-10-17T09:38:49.232Z,98659
2015-10-17T09:39:02.263Z,98664
2015-10-17T09:39:15.154Z,98659
2015-10-17T09:39:29.076Z,98664
2015-10-17T09:39:41.657Z,98662
2015-10-17T09:39:54.798Z,98654
2015-10-17T09:40:07.344Z,98662
2015-10-17T09:40:19.719Z,98662
2015-10-17T09:40:35.251Z,98670
2015-10-17T09:40:49.690Z,98664
2015-10-17T09:41:02.190Z,98661
2015-10-17T09:41:15.081Z,98661
2015-10-17T09:41:27.628Z,98661
2015-10-17T09:41:40.584Z,98661
2015-10-17T09:41:58.678Z,98664
2015-10-17T09:42:11.053Z,98656
2015-10-17T09:42:23.912Z,98656
2015-10-17T09:42:36.959Z,98669
2015-10-17T09:42:49.461Z,98661
2015-10-17T09:43:02.086Z,98661
2015-10-17T09:43:14.726Z,98653
2015-10-17T09:43:27.180Z,98661
2015-10-17T09:43:40.792Z,98661
2015-10-17T09:43:57.808Z,98656
2015-10-17T09:44:10.667Z,98658
2015-10-17T09:44:24.604Z,98658
2015-10-17T09:44:41.701Z,98653
2015-10-17T09:44:54.873Z,98656
2015-10-17T09:45:07.467Z,98672
2015-10-17T13:20:13.761Z,98592
2015-10-17T13:20:26.717Z,98586
2015-10-17T13:20:38.858Z,98592
2015-10-17T13:20:51.014Z,98592
2015-10-17T13:21:03.155Z,98594
2015-10-17T13:21:15.436Z,98589
2015-10-17T13:21:27.688Z,98589
2015-10-17T13:21:39.860Z,98597
2015-10-17T13:21:52.641Z,98594
2015-10-17T13:22:04.813Z,98602
2015-10-17T13:22:17.144Z,98602
2015-10-17T13:22:30.363Z,98594
2015-10-17T13:22:42.644Z,98600
2015-10-17T13:22:59.504Z,98589
2015-10-17T13:23:12.175Z,98589
2015-10-17T13:23:24.663Z,98594
2015-10-17T13:23:42.444Z,98586
2015-10-17T13:23:55.178Z,98592
2015-10-17T13:24:07.928Z,98586
2015-10-17T13:24:20.055Z,98600
2015-10-17T13:24:32.305Z,98597
2015-10-17T13:24:44.587Z,98597
2015-10-17T13:24:56.930Z,98586
2015-10-17T13:25:08.993Z,98600
2015-10-17T13:25:21.590Z,98594
2015-10-17T13:25:43.137Z,98597
2015-10-17T13:25:55.340Z,98597
2015-10-17T13:26:07.699Z,98592
2015-10-17T13:26:20.218Z,98595
2015-10-17T13:26:32.765Z,98586
2015-10-17T13:26:47.405Z,98600
2015-10-17T13:26:59.452Z,98589
2015-10-17T13:27:11.796Z,98584
2015-10-17T13:27:24.048Z,98592
2015-10-17T13:27:36.313Z,98598
2015-10-17T13:27:48.970Z,98603
2015-10-17T13:28:01.157Z,98592
2015-10-17T13:28:13.392Z,98601
2015-10-17T13:28:26.051Z,98592
2015-10-17T13:28:38.754Z,98595
2015-10-17T13:28:50.848Z,98603
2015-10-17T13:29:03.535Z,98595
2015-10-17T13:29:15.848Z,98589
2015-10-17T13:29:28.818Z,98589
2015-10-17T13:29:41.584Z,98592
2015-10-17T13:29:53.787Z,98594
2015-10-17T13:30:06.553Z,98597
2015-10-17T13:30:23.401Z,98592
2015-10-17T13:30:35.666Z,98594
2015-10-17T13:30:48.682Z,98600
2015-10-17T13:31:00.869Z,98603
2015-10-17T13:31:13.682Z,98605
2015-10-17T13:31:26.106Z,98597
2015-10-17T13:31:38.653Z,98600
2015-10-17T13:31:50.746Z,98589
2015-10-17T13:32:02.934Z,98597
2015-10-17T13:32:15.778Z,98591
2015-10-17T13:32:27.998Z,98600
2015-10-17T13:32:41.514Z,98597
2015-10-17T13:32:54.123Z,98594
2015-10-17T13:33:06.826Z,98600
2015-10-17T13:33:20.345Z,98602
2015-10-17T13:33:32.548Z,98594
2015-10-17T13:33:44.751Z,98603
2015-10-17T13:33:57.017Z,98592
2015-10-17T13:34:09.658Z,98597
2015-10-17T13:34:22.067Z,98597
2015-10-17T13:34:34.411Z,98592
2015-10-17T13:34:46.754Z,98600
2015-10-17T13:34:59.598Z,98592
2015-10-17T13:35:11.848Z,98600
2015-10-17T13:35:24.945Z,98597
2015-10-17T13:35:37.226Z,98597
2015-10-17T13:35:49.929Z,98595
2015-10-17T13:36:02.664Z,98600
2015-10-17T13:36:15.664Z,98589
2015-10-17T13:36:28.073Z,98603
2015-10-17T13:36:40.620Z,98589
2015-10-17T13:36:53.042Z,98592
2015-10-17T13:37:05.932Z,98600
2015-10-17T13:37:18.198Z,98592
2015-10-17T13:37:30.981Z,98592
2015-10-17T13:37:43.075Z,98595
2015-10-17T13:37:55.215Z,98592
2015-10-17T13:38:07.809Z,98597
2015-10-17T13:38:20.044Z,98586
2015-10-17T13:38:32.797Z,98586
2015-10-17T13:38:45.797Z,98603
2015-10-17T13:38:58.281Z,98594
2015-10-17T13:39:10.609Z,98594
2015-10-17T13:39:22.736Z,98592
2015-10-17T13:39:35.564Z,98595
2015-10-17T13:39:48.252Z,98595
2015-10-17T13:40:03.892Z,98595
2015-10-17T13:40:16.127Z,98586
2015-10-17T13:40:28.864Z,98592
2015-10-17T13:40:41.114Z,98594
2015-10-17T13:40:53.333Z,98600
2015-10-17T13:41:05.598Z,98595
2015-10-17T13:41:21.161Z,98597
2015-10-17T13:41:34.461Z,98606
2015-10-17T13:41:46.695Z,98603
2015-10-17T13:41:59.164Z,98594
2015-10-17T13:42:11.883Z,98589
2015-10-17T13:42:24.229Z,98594
2015-10-17T13:42:36.401Z,98592
2015-10-17T13:42:48.558Z,98595
2015-10-17T13:43:00.761Z,98589
2015-10-17T13:43:13.542Z,98594
2015-10-17T13:43:25.732Z,98592
2015-10-17T13:43:38.404Z,98603
2015-10-17T13:43:50.592Z,98592
2015-10-17T13:44:03.764Z,98594
2015-10-17T13:44:16.123Z,98597
2015-10-17T13:44:28.703Z,98592
2015-10-17T13:44:40.875Z,98597
2015-10-17T13:44:52.953Z,98597
2015-10-17T13:45:05.641Z,98603
2015-10-17T13:45:19.109Z,98586
2015-10-17T13:45:31.908Z,98595
2015-10-17T13:45:44.221Z,98595
2015-10-17T13:45:56.471Z,98595
2015-10-17T13:46:08.580Z,98597
2015-10-17T13:46:21.674Z,98595
2015-10-17T13:46:34.036Z,98592
2015-10-17T13:46:46.380Z,98601
2015-10-17T13:46:58.583Z,98606
2015-10-17T13:47:10.896Z,98595
2015-10-17T13:47:23.177Z,98598
2015-10-17T13:47:35.289Z,98595
2015-10-17T13:47:48.008Z,98601
2015-10-17T13:48:00.274Z,98600
2015-10-17T13:48:12.867Z,98603
2015-10-17T13:48:25.574Z,98589
2015-10-17T13:48:38.980Z,98589
2015-10-17T13:48:51.167Z,98589
2015-10-17T13:49:06.949Z,98595
2015-10-17T13:49:19.527Z,98595
2015-10-17T13:49:31.670Z,98600
2015-10-17T13:49:45.405Z,98592
2015-10-17T13:49:58.077Z,98597
2015-10-17T13:50:10.358Z,98589
2015-10-17T13:50:23.092Z,98597
2015-10-17T13:50:36.408Z,98592
2015-10-17T13:50:50.205Z,98594
2015-10-17T13:51:02.783Z,98597
2015-10-17T13:51:15.673Z,98600
2015-10-17T13:51:28.472Z,98597
2015-10-17T13:51:41.285Z,98592
2015-10-17T13:51:53.613Z,98597
2015-10-17T13:52:06.457Z,98600
2015-10-17T13:52:20.457Z,98600
2015-10-17T13:52:33.288Z,98594
2015-10-17T13:52:45.975Z,98597
2015-10-17T13:52:58.319Z,98586
2015-10-17T13:53:12.600Z,98586
2015-10-17T13:53:25.288Z,98597
2015-10-17T13:53:38.337Z,98597
2015-10-17T13:53:51.430Z,98602
2015-10-17T13:54:04.024Z,98586
2015-10-17T13:54:20.883Z,98597
2015-10-17T13:54:33.183Z,98594
2015-10-17T13:54:45.511Z,98597
2015-10-17T13:54:58.105Z,98591
2015-10-17T13:55:10.261Z,98583
2015-10-17T13:55:23.136Z,98594
2015-10-17T13:55:35.717Z,98600
2015-10-17T13:55:47.935Z,98583
2015-10-17T13:56:00.295Z,98591
2015-10-17T13:56:12.685Z,98583
2015-10-17T13:56:25.732Z,98594
2015-10-17T13:56:38.049Z,98600
2015-10-17T13:56:51.174Z,98594
2015-10-17T13:57:03.455Z,98594
2015-10-17T13:57:15.658Z,98597
2015-10-17T13:57:28.661Z,98594
2015-10-17T13:57:43.974Z,98586
2015-10-17T13:57:56.380Z,98594
2015-10-17T13:58:08.536Z,98594
2015-10-17T13:58:21.036Z,98591
2015-10-17T13:58:33.866Z,98588
2015-10-17T13:58:45.976Z,98591
2015-10-17T13:58:58.726Z,98597
2015-10-17T13:59:11.429Z,98588
2015-10-17T13:59:23.976Z,98591
2015-10-17T13:59:37.604Z,98597
2015-10-17T13:59:50.182Z,98591
2015-10-17T14:00:02.947Z,98591
2015-10-17T14:00:18.822Z,98589
2015-10-17T14:00:30.949Z,98589
2015-10-17T14:00:43.777Z,98586
2015-10-17T14:00:55.887Z,98591
2015-10-17T14:01:08.184Z,98591
2015-10-17T14:01:21.309Z,98597
2015-10-17T14:01:36.530Z,98600
2015-10-17T14:01:49.468Z,98594
2015-10-17T14:02:03.046Z,98586
2015-10-17T14:02:15.187Z,98600
2015-10-17T14:02:28.440Z,98591
2015-10-17T14:02:41.127Z,98597
2015-10-17T14:02:53.846Z,98591
2015-10-17T14:03:08.018Z,98597
2015-10-17T14:03:20.330Z,98586
2015-10-17T14:03:33.114Z,98583
2015-10-17T14:03:45.176Z,98583
2015-10-17T14:04:01.692Z,98592
2015-10-17T14:04:14.395Z,98592
2015-10-17T14:04:27.114Z,98600
2015-10-17T14:04:39.913Z,98592
2015-10-17T14:04:53.804Z,98586
2015-10-17T14:05:07.726Z,98594
2015-10-17T14:05:20.148Z,98583
2015-10-17T14:05:32.495Z,98597
2015-10-17T14:05:44.729Z,98591
2015-10-17T14:05:57.495Z,98594
2015-10-17T14:06:10.573Z,98589
2015-10-17T14:06:23.135Z,98592
2015-10-17T14:06:35.403Z,98591
2015-10-17T14:06:48.184Z,98591
2015-10-17T14:07:00.528Z,98591
2015-10-17T19:53:05.433Z,98611
2015-10-17T19:53:38.949Z,98593
2015-10-17T19:54:12.137Z,98602
2015-10-17T19:54:30.887Z,98598
2015-10-17T19:54:44.168Z,98601
2015-10-17T19:54:56.512Z,98598
2015-10-17T19:55:13.418Z,98601
2015-10-17T19:55:26.496Z,98598
2015-10-17T19:55:38.762Z,98601
2015-10-17T19:55:51.544Z,98593
2015-10-17T19:56:04.216Z,98607
2015-10-17T19:56:16.560Z,98607
2015-10-17T19:56:29.451Z,98599
2015-10-17T19:56:42.765Z,98596
2015-10-17T19:56:55.453Z,98599
2015-10-17T19:57:07.656Z,98607
2015-10-17T19:57:20.687Z,98591
2015-10-17T19:57:33.437Z,98591
2015-10-17T19:57:45.612Z,98599
2015-10-17T19:57:58.362Z,98599
2015-10-17T19:58:11.627Z,98596
2015-10-17T19:58:24.690Z,98588
2015-10-17T19:58:36.752Z,98591
2015-10-17T19:58:50.300Z,98599
2015-10-17T19:59:03.050Z,98588
2015-10-17T19:59:16.910Z,98583
2015-10-17T19:59:30.753Z,98583
2015-10-17T19:59:43.568Z,98591
2015-10-17T19:59:55.802Z,98594
2015-10-17T20:00:07.990Z,98588
2015-10-17T20:00:24.334Z,98591
2015-10-17T20:00:36.630Z,98594
2015-10-17T20:00:48.757Z,98577
2015-10-17T20:01:01.179Z,98588
2015-10-17T20:01:14.429Z,98594
2015-10-17T20:01:26.992Z,98583
2015-10-17T20:01:39.539Z,98583
2015-10-17T20:01:52.385Z,98589
2015-10-17T20:02:04.557Z,98580
2015-10-17T20:02:17.870Z,98589
2015-10-17T20:02:30.932Z,98594
2015-10-17T20:02:44.012Z,98586
2015-10-17T20:02:57.497Z,98589
2015-10-17T20:03:10.122Z,98578
2015-10-17T20:03:22.966Z,98583
2015-10-17T20:03:35.653Z,98594
2015-10-17T20:03:47.811Z,98589
2015-10-17T20:04:00.061Z,98580
2015-10-17T20:04:12.577Z,98586
2015-10-17T20:04:24.983Z,98583
2015-10-17T20:04:37.343Z,98585
2015-10-17T20:04:49.673Z,98580
2015-10-17T20:05:01.829Z,98585
2015-10-17T20:05:15.032Z,98583
2015-10-17T20:05:27.641Z,98583
2015-10-17T20:05:40.173Z,98583
2015-10-17T20:05:52.644Z,98577
2015-10-17T20:06:05.598Z,98580
2015-10-17T20:06:18.629Z,98591
2015-10-17T20:06:30.894Z,98574
2015-10-17T20:06:42.944Z,98574
2015-10-17T20:06:55.054Z,98588
2015-10-17T20:07:07.179Z,98580
2015-10-17T20:07:19.601Z,98580
2015-10-17T20:07:32.179Z,98586
2015-10-17T20:07:44.368Z,98586
2015-10-17T20:07:56.556Z,98586
2015-10-17T20:08:09.759Z,98583
2015-10-17T20:08:22.431Z,98591
2015-10-17T20:08:36.243Z,98594
2015-10-17T20:08:48.402Z,98575
2015-10-17T20:09:06.637Z,98578
2015-10-17T20:09:18.871Z,98580
2015-10-17T20:09:31.012Z,98575
2015-10-17T20:09:43.277Z,98572
2015-10-17T20:09:55.718Z,98578
2015-10-17T20:10:08.499Z,98578
2015-10-17T20:10:21.280Z,98569
2015-10-17T20:10:34.030Z,98589
2015-10-17T20:10:53.877Z,98591
2015-10-17T20:11:19.924Z,98586
2015-10-17T20:11:37.377Z,98580
2015-10-17T20:11:50.598Z,98577
2015-10-17T20:12:02.957Z,98583
2015-10-17T20:12:17.567Z,98597
2015-10-17T20:12:31.254Z,98575
2015-10-17T20:12:43.989Z,98575
2015-10-17T20:12:56.663Z,98583
2015-10-17T20:13:09.492Z,98586
2015-10-17T20:13:25.851Z,98575
2015-10-17T20:13:38.507Z,98591
2015-10-17T20:13:51.212Z,98586
2015-10-17T20:14:03.572Z,98580
2015-10-17T20:14:15.962Z,98591
2015-10-17T20:14:28.103Z,98591
2015-10-17T20:14:41.884Z,98577
2015-10-17T20:14:54.700Z,98580
2015-10-17T20:15:07.543Z,98586
2015-10-17T20:15:20.372Z,98583
2015-10-17T20:15:32.997Z,98578
2015-10-17T20:15:45.184Z,98580
2015-10-17T20:15:57.578Z,98591
2015-10-17T20:16:10.203Z,98591
2015-10-17T20:16:23.890Z,98591
2015-10-17T20:16:35.984Z,98591
2015-10-17T20:16:48.612Z,98586
2015-10-17T20:17:03.674Z,98589
2015-10-17T20:17:16.315Z,98583
2015-10-17T20:17:28.987Z,98580
2015-10-17T20:17:42.112Z,98586
2015-10-17T20:17:54.614Z,98583
2015-10-17T20:18:06.708Z,98583
2015-10-17T20:18:18.692Z,98583
2015-10-17T20:18:31.223Z,98583
2015-10-17T20:18:43.286Z,98580
2015-10-17T20:18:56.414Z,98580
2015-10-17T20:19:09.039Z,98591
2015-10-17T20:19:21.211Z,98591
2015-10-17T20:19:34.586Z,98572
2015-10-17T20:19:46.976Z,98583
2015-10-17T20:19:59.978Z,98582
2015-10-17T20:20:12.103Z,98585
2015-10-17T20:20:24.463Z,98582
2015-10-17T20:20:37.197Z,98585
2015-10-17T20:20:50.044Z,98579
2015-10-17T20:21:02.325Z,98590
2015-10-17T20:21:14.434Z,98584
2015-10-17T20:21:26.466Z,98582
2015-10-17T20:21:39.200Z,98584
2015-10-17T20:21:51.516Z,98584
2015-10-17T20:22:04.641Z,98578
2015-10-17T20:22:16.953Z,98595
2015-10-17T20:22:29.484Z,98584
2015-10-17T20:22:42.453Z,98579
2015-10-17T20:22:56.003Z,98590
2015-10-17T20:23:08.097Z,98579
2015-10-17T20:23:20.378Z,98588
2015-10-17T20:23:32.565Z,98582
2015-10-17T20:23:44.612Z,98579
2015-10-17T20:23:57.365Z,98582
2015-10-17T20:24:09.428Z,98593
2015-10-17T20:24:22.506Z,98582
2015-10-17T20:24:34.568Z,98577
2015-10-17T20:24:46.615Z,98582
2015-10-17T20:24:59.102Z,98591
2015-10-17T20:25:11.195Z,98583
2015-10-17T20:25:23.539Z,98588
2015-10-17T20:25:35.711Z,98591
2015-10-17T20:25:48.352Z,98580
2015-10-17T20:26:00.964Z,98591
2015-10-17T20:26:13.511Z,98583
2015-10-17T20:26:25.589Z,98586
2015-10-17T20:26:38.198Z,98591
2015-10-17T20:26:50.810Z,98591
2015-10-17T20:27:03.310Z,98586
2015-10-17T20:27:15.404Z,98588
2015-10-17T20:27:27.716Z,98591
2015-10-17T20:27:41.404Z,98577
2015-10-17T20:27:58.782Z,98597
2015-10-17T20:28:11.297Z,98591
2015-10-17T20:28:23.719Z,98583
2015-10-17T20:28:36.250Z,98588
2015-10-17T20:28:48.297Z,98583
2015-10-17T20:29:04.738Z,98583
2015-10-17T20:29:17.238Z,98585
2015-10-17T20:29:30.550Z,98602
2015-10-17T20:29:44.113Z,98588
2015-10-17T20:29:56.163Z,98588
2015-10-17T20:30:09.350Z,98591
2015-10-17T20:30:22.022Z,98591
2015-10-17T20:30:34.256Z,98594
2015-10-17T20:30:47.069Z,98583
2015-10-17T20:30:59.149Z,98594
2015-10-17T20:31:14.915Z,98586
2015-10-17T20:31:28.430Z,98597
2015-10-17T20:31:40.836Z,98591
2015-10-17T20:31:53.339Z,98588
2015-10-17T20:32:06.933Z,98594
